Time;durP1;ratioP1;P1;durP2;ratioP2;P2;SDS_P1;SDS_P2;PMS_P1;PMS_P2;Temp;Humidity;BMP_temperature;BMP_pressure;BME280_temperature;BME280_humidity;BME280_pressure;Samples;Min_cycle;Max_cycle;Signal;HPM_P1;HPM_P2
2023/03/13 00:00:34;;;;;;;10.35;3.88;;;5.70;99.90;;;;;;6265218;22;20195;-80
2023/03/13 00:03:00;;;;;;;11.43;2.35;;;5.60;99.90;;;;;;6263105;22;20152;-80
2023/03/13 00:05:25;;;;;;;8.90;2.50;;;5.60;99.90;;;;;;6262882;22;20163;-80
2023/03/13 00:07:51;;;;;;;9.97;2.27;;;5.70;99.90;;;;;;6268099;22;20287;-83
2023/03/13 00:10:16;;;;;;;7.40;2.23;;;5.70;99.90;;;;;;6268387;22;20223;-80
2023/03/13 00:12:42;;;;;;;10.50;2.87;;;5.70;99.90;;;;;;6271785;22;20174;-83
2023/03/13 00:15:08;;;;;;;7.97;3.13;;;5.90;99.90;;;;;;6264663;22;20140;-80
2023/03/13 00:17:33;;;;;;;11.73;3.13;;;5.90;99.90;;;;;;6267205;22;20198;-82
2023/03/13 00:20:00;;;;;;;6.03;1.97;;;5.90;99.90;;;;;;6271670;22;20393;-81
2023/03/13 00:22:25;;;;;;;7.32;2.45;;;6.00;99.90;;;;;;6271102;22;20164;-79
2023/03/13 00:24:51;;;;;;;7.67;2.23;;;6.20;99.90;;;;;;6270787;22;20148;-83
2023/03/13 00:27:16;;;;;;;3.80;1.70;;;6.30;99.90;;;;;;6269751;22;20205;-80
2023/03/13 00:29:42;;;;;;;8.07;2.63;;;6.60;99.90;;;;;;6267707;22;20179;-83
2023/03/13 00:32:07;;;;;;;10.77;1.47;;;6.90;99.90;;;;;;6271015;22;20237;-83
2023/03/13 00:34:33;;;;;;;3.90;2.80;;;7.30;99.90;;;;;;6267837;22;20140;-83
2023/03/13 00:36:58;;;;;;;17.17;4.10;;;7.70;99.90;;;;;;6277461;22;20161;-83
2023/03/13 00:39:24;;;;;;;17.23;3.63;;;7.90;99.90;;;;;;6274222;22;20163;-84
2023/03/13 00:41:50;;;;;;;7.73;2.23;;;8.10;99.90;;;;;;6272125;22;20184;-84
2023/03/13 00:44:15;;;;;;;6.30;2.90;;;8.20;99.90;;;;;;6273262;22;20181;-82
2023/03/13 00:46:41;;;;;;;15.67;2.37;;;8.30;99.90;;;;;;6273748;22;20665;-82
2023/03/13 00:49:06;;;;;;;2.50;1.50;;;8.50;99.90;;;;;;6275076;22;20175;-81
2023/03/13 00:51:32;;;;;;;5.63;1.83;;;8.50;99.90;;;;;;6266547;22;20406;-83
2023/03/13 00:54:02;;;;;;;7.10;2.57;;;8.60;99.90;;;;;;6279070;22;20542;-80
2023/03/13 00:56:28;;;;;;;8.35;2.22;;;8.60;99.90;;;;;;6273421;22;20223;-85
2023/03/13 00:58:53;;;;;;;16.30;2.50;;;8.70;99.90;;;;;;6275458;22;20178;-83
2023/03/13 01:01:31;;;;;;;6.60;2.83;;;8.80;99.90;;;;;;6272710;22;20481;-81
2023/03/13 01:04:08;;;;;;;11.88;3.45;;;8.80;99.90;;;;;;6274555;22;20142;-84
2023/03/13 01:06:36;;;;;;;9.63;2.35;;;8.80;99.90;;;;;;6272548;22;20193;-80
2023/03/13 01:09:04;;;;;;;7.03;1.80;;;8.80;99.90;;;;;;6275206;22;20169;-81
2023/03/13 01:11:33;;;;;;;5.95;2.58;;;8.80;99.90;;;;;;6273430;22;20249;-81
2023/03/13 01:14:05;;;;;;;10.90;2.17;;;8.80;99.90;;;;;;6272172;22;20155;-80
2023/03/13 01:16:32;;;;;;;10.48;3.03;;;8.70;99.90;;;;;;6271320;22;20372;-82
2023/03/13 01:19:04;;;;;;;10.63;2.80;;;8.80;99.90;;;;;;6272726;22;20155;-82
2023/03/13 01:21:30;;;;;;;16.02;2.65;;;8.90;99.90;;;;;;6271526;22;20176;-82
2023/03/13 01:23:56;;;;;;;13.93;3.97;;;8.90;99.90;;;;;;6269977;22;20151;-83
2023/03/13 01:26:23;;;;;;;13.13;2.55;;;8.90;99.90;;;;;;6271107;22;20485;-82
2023/03/13 01:28:49;;;;;;;6.35;1.80;;;9.00;99.90;;;;;;6270514;22;20195;-82
2023/03/13 01:31:21;;;;;;;6.33;2.63;;;9.00;99.90;;;;;;6273697;22;20163;-84
2023/03/13 01:33:49;;;;;;;5.80;2.40;;;9.00;99.90;;;;;;6271815;22;20444;-83
2023/03/13 01:36:15;;;;;;;8.80;2.15;;;8.90;99.90;;;;;;6266729;22;20182;-83
2023/03/13 01:38:41;;;;;;;5.32;2.28;;;8.90;99.90;;;;;;6268135;22;20151;-83
2023/03/13 01:41:10;;;;;;;11.83;3.40;;;8.90;99.90;;;;;;6265740;22;20716;-83
2023/03/13 01:43:36;;;;;;;7.40;2.28;;;9.00;99.90;;;;;;6267473;22;20166;-81
2023/03/13 01:46:20;;;;;;;21.58;3.00;;;9.00;99.90;;;;;;6264959;22;20152;-83
2023/03/13 01:49:16;;;;;;;8.32;1.80;;;9.10;99.90;;;;;;6265263;22;20210;-82
2023/03/13 01:52:05;;;;;;;11.70;2.47;;;9.20;99.90;;;;;;6262534;22;20832;-81
2023/03/13 01:54:53;;;;;;;10.65;3.20;;;9.20;99.90;;;;;;6264340;22;20185;-81
2023/03/13 01:57:32;;;;;;;9.90;2.65;;;9.40;99.90;;;;;;6273494;22;20160;-83
2023/03/13 02:00:15;;;;;;;11.85;2.20;;;9.20;99.90;;;;;;6268942;22;20177;-84
2023/03/13 02:02:47;;;;;;;5.82;1.70;;;9.30;99.90;;;;;;6269028;22;20125;-83
2023/03/13 02:05:14;;;;;;;12.15;2.33;;;9.30;99.90;;;;;;6269737;22;20605;-83
2023/03/13 02:07:47;;;;;;;7.30;1.80;;;9.30;99.90;;;;;;6273798;22;20159;-83
2023/03/13 02:10:15;;;;;;;8.70;2.53;;;9.30;99.90;;;;;;6245307;22;20143;-82
2023/03/13 02:12:41;;;;;;;10.95;1.80;;;9.30;99.90;;;;;;6272160;22;20148;-82
2023/03/13 02:15:14;;;;;;;4.80;1.40;;;9.30;99.90;;;;;;6272983;22;20154;-81
2023/03/13 02:17:41;;;;;;;6.75;1.70;;;9.40;99.90;;;;;;6244688;22;20140;-81
2023/03/13 02:20:08;;;;;;;2.45;0.77;;;9.50;99.90;;;;;;6245297;22;20203;-82
2023/03/13 02:22:38;;;;;;;6.72;2.55;;;9.50;99.90;;;;;;6270442;22;20140;-83
2023/03/13 02:25:12;;;;;;;16.02;2.90;;;9.60;99.90;;;;;;6246213;22;20331;-83
2023/03/13 02:27:38;;;;;;;10.07;1.67;;;9.70;99.90;;;;;;6244985;22;20163;-82
2023/03/13 02:30:07;;;;;;;3.17;1.30;;;9.70;99.90;;;;;;6271356;22;20198;-83
2023/03/13 02:32:33;;;;;;;10.30;3.55;;;9.70;99.90;;;;;;6272233;22;20148;-83
2023/03/13 02:35:05;;;;;;;11.13;2.67;;;9.80;99.90;;;;;;6270832;22;20148;-83
2023/03/13 02:37:32;;;;;;;6.07;1.90;;;9.80;99.90;;;;;;6242560;22;20143;-83
2023/03/13 02:40:01;;;;;;;7.15;2.42;;;9.90;99.90;;;;;;6271297;22;20132;-80
2023/03/13 02:42:28;;;;;;;5.28;1.45;;;9.90;99.90;;;;;;6269174;22;20176;-79
2023/03/13 02:44:53;;;;;;;2.50;1.35;;;10.00;99.90;;;;;;6268815;22;20139;-81
2023/03/13 02:47:24;;;;;;;14.07;1.87;;;9.90;99.90;;;;;;6238717;22;20174;-82
2023/03/13 02:49:52;;;;;;;5.40;1.13;;;10.00;99.90;;;;;;6243052;22;20495;-81
2023/03/13 02:52:25;;;;;;;6.82;1.08;;;10.00;99.90;;;;;;6269224;22;20167;-81
2023/03/13 02:54:56;;;;;;;6.80;2.08;;;9.90;99.90;;;;;;6241138;22;20201;-82
2023/03/13 02:57:21;;;;;;;8.32;1.83;;;10.00;99.90;;;;;;6243204;22;20198;-81
2023/03/13 02:59:46;;;;;;;7.40;1.57;;;10.10;99.90;;;;;;6268686;22;20760;-82
2023/03/13 03:02:12;;;;;;;1.93;0.83;;;10.10;99.90;;;;;;6266516;22;20191;-83
2023/03/13 03:04:38;;;;;;;5.57;1.13;;;10.10;99.90;;;;;;6268343;22;20233;-81
2023/03/13 03:07:03;;;;;;;5.40;1.37;;;10.10;99.90;;;;;;6261568;22;20174;-84
2023/03/13 03:09:29;;;;;;;8.80;2.00;;;10.00;99.90;;;;;;6268231;22;20215;-84
2023/03/13 03:11:54;;;;;;;6.87;2.07;;;10.10;99.90;;;;;;6267376;22;20172;-81
2023/03/13 03:14:20;;;;;;;8.70;2.00;;;10.00;99.90;;;;;;6267802;22;20148;-82
2023/03/13 03:16:46;;;;;;;4.73;1.47;;;10.00;99.90;;;;;;6274338;22;20314;-84
2023/03/13 03:19:11;;;;;;;4.97;1.30;;;10.00;99.90;;;;;;6269547;22;20156;-81
2023/03/13 03:21:37;;;;;;;7.00;1.80;;;9.90;99.90;;;;;;6272172;22;20759;-82
2023/03/13 03:24:04;;;;;;;1.83;0.95;;;9.90;99.90;;;;;;6270136;22;20706;-83
2023/03/13 03:26:29;;;;;;;5.03;1.10;;;9.90;99.90;;;;;;6268225;22;20148;-84
2023/03/13 03:28:55;;;;;;;5.50;1.60;;;9.90;99.90;;;;;;6265059;22;20175;-83
2023/03/13 03:31:21;;;;;;;3.83;1.70;;;9.90;99.90;;;;;;6263982;22;20159;-81
2023/03/13 03:33:46;;;;;;;8.67;1.77;;;9.80;99.90;;;;;;6266735;22;20159;-84
2023/03/13 03:36:21;;;;;;;4.93;1.30;;;9.70;99.90;;;;;;6272715;22;20397;-82
2023/03/13 03:38:47;;;;;;;7.15;1.13;;;9.70;99.90;;;;;;6268880;22;20200;-83
2023/03/13 03:41:13;;;;;;;11.07;2.50;;;9.80;99.90;;;;;;6269876;22;20537;-81
2023/03/13 03:43:39;;;;;;;4.75;1.13;;;9.90;99.90;;;;;;6268049;22;20428;-82
2023/03/13 03:46:04;;;;;;;1.23;0.83;;;10.10;99.90;;;;;;6270542;22;20155;-83
2023/03/13 03:48:30;;;;;;;3.90;1.00;;;10.40;99.90;;;;;;6270736;22;20410;-82
2023/03/13 03:50:55;;;;;;;2.20;1.20;;;10.60;99.90;;;;;;6264905;22;20524;-82
2023/03/13 03:53:21;;;;;;;6.00;1.50;;;10.60;99.90;;;;;;6265981;22;20254;-84
2023/03/13 03:55:47;;;;;;;4.30;1.07;;;10.60;99.90;;;;;;6263377;22;20225;-81
2023/03/13 03:58:12;;;;;;;6.63;1.80;;;10.70;99.90;;;;;;6267484;22;20159;-85
2023/03/13 04:00:38;;;;;;;2.70;1.50;;;10.70;99.90;;;;;;6265976;22;20171;-81
2023/03/13 04:03:03;;;;;;;5.63;1.37;;;10.70;99.90;;;;;;6238917;22;20983;-82
2023/03/13 04:05:29;;;;;;;5.80;0.90;;;10.80;99.90;;;;;;6270721;22;20155;-82
2023/03/13 04:07:54;;;;;;;2.57;1.10;;;10.80;99.90;;;;;;6244681;22;20194;-80
2023/03/13 04:10:20;;;;;;;2.10;0.80;;;10.90;99.90;;;;;;6267620;22;20152;-80
2023/03/13 04:12:46;;;;;;;1.17;0.47;;;11.00;99.90;;;;;;6268882;22;20316;-80
2023/03/13 04:15:12;;;;;;;7.27;0.90;;;10.90;99.90;;;;;;6244019;22;20440;-79
2023/03/13 04:17:37;;;;;;;4.40;0.93;;;11.00;99.90;;;;;;6241257;22;20159;-79
2023/03/13 04:20:04;;;;;;;2.50;0.97;;;11.00;99.90;;;;;;6268316;22;20755;-82
2023/03/13 04:22:29;;;;;;;4.13;0.98;;;11.10;99.90;;;;;;6242173;22;20168;-80
2023/03/13 04:24:55;;;;;;;4.30;1.00;;;11.10;99.90;;;;;;6241053;22;20379;-79
2023/03/13 04:27:21;;;;;;;5.50;1.27;;;11.10;99.90;;;;;;6246031;22;20383;-81
2023/03/13 04:29:46;;;;;;;3.33;1.27;;;11.10;99.90;;;;;;6269773;22;20186;-82
2023/03/13 04:32:12;;;;;;;5.93;0.90;;;11.10;99.90;;;;;;6250469;22;20178;-82
2023/03/13 04:34:37;;;;;;;4.80;1.13;;;11.10;99.90;;;;;;6272431;22;20603;-80
2023/03/13 04:37:03;;;;;;;3.53;0.80;;;11.10;99.90;;;;;;6241811;22;20156;-80
2023/03/13 04:39:29;;;;;;;2.40;0.80;;;11.10;99.90;;;;;;6268642;22;20155;-81
2023/03/13 04:41:55;;;;;;;5.57;1.33;;;10.90;99.90;;;;;;6271799;22;20421;-84
2023/03/13 04:44:22;;;;;;;1.38;0.95;;;10.90;99.90;;;;;;6241891;22;20655;-80
2023/03/13 04:46:48;;;;;;;2.53;0.90;;;10.90;99.90;;;;;;6272177;22;20152;-79
2023/03/13 04:49:14;;;;;;;2.90;0.80;;;10.90;99.90;;;;;;6270157;22;20242;-79
2023/03/13 04:51:44;;;;;;;5.97;1.13;;;10.90;99.90;;;;;;6270262;22;20390;-80
2023/03/13 04:54:10;;;;;;;6.68;1.67;;;11.10;99.90;;;;;;6242739;22;20159;-80
2023/03/13 04:56:36;;;;;;;1.40;0.98;;;11.00;99.90;;;;;;6244405;22;20144;-82
2023/03/13 04:59:02;;;;;;;1.90;1.03;;;11.10;99.90;;;;;;6267881;22;20802;-82
2023/03/13 05:01:27;;;;;;;1.40;0.70;;;11.10;99.90;;;;;;6263472;22;20178;-78
2023/03/13 05:03:53;;;;;;;2.33;1.10;;;11.00;99.90;;;;;;6238548;22;20152;-83
2023/03/13 05:06:18;;;;;;;2.87;0.60;;;11.10;99.90;;;;;;6239839;22;20262;-82
2023/03/13 05:08:44;;;;;;;5.13;0.70;;;11.00;99.90;;;;;;6267586;22;20600;-80
2023/03/13 05:11:09;;;;;;;9.03;1.10;;;11.00;99.90;;;;;;6240213;22;20229;-80
2023/03/13 05:13:35;;;;;;;1.13;0.60;;;11.00;99.90;;;;;;6243207;22;20574;-83
2023/03/13 05:16:01;;;;;;;1.73;0.50;;;11.00;99.90;;;;;;6241789;22;20152;-81
2023/03/13 05:18:27;;;;;;;12.73;1.63;;;11.10;99.90;;;;;;6238894;22;20156;-81
2023/03/13 05:20:52;;;;;;;3.57;1.17;;;11.10;99.90;;;;;;6270657;22;21033;-80
2023/03/13 05:23:18;;;;;;;1.43;0.67;;;11.10;99.90;;;;;;6240219;22;20155;-82
2023/03/13 05:25:43;;;;;;;2.40;0.53;;;11.20;99.90;;;;;;6242868;22;20243;-81
2023/03/13 05:28:11;;;;;;;1.30;0.70;;;11.20;99.90;;;;;;6268883;22;20860;-80
2023/03/13 05:30:36;;;;;;;1.52;0.90;;;11.20;99.90;;;;;;6286977;22;20167;-83
2023/03/13 05:33:03;;;;;;;2.83;0.73;;;11.20;99.90;;;;;;6250931;22;20148;-82
2023/03/13 05:35:28;;;;;;;5.55;1.20;;;11.30;99.90;;;;;;6245817;22;20206;-85
2023/03/13 05:37:54;;;;;;;4.00;2.23;;;11.20;99.90;;;;;;6241544;22;20625;-83
2023/03/13 05:40:19;;;;;;;9.13;4.20;;;11.30;99.90;;;;;;6266562;22;20144;-83
2023/03/13 05:42:45;;;;;;;7.47;1.13;;;11.30;99.90;;;;;;6241775;22;20464;-81
2023/03/13 05:45:11;;;;;;;5.83;2.00;;;11.30;99.90;;;;;;6238669;22;20159;-81
2023/03/13 05:47:37;;;;;;;0.83;0.60;;;11.30;99.90;;;;;;6267846;22;20136;-77
2023/03/13 05:50:04;;;;;;;4.85;0.75;;;11.30;99.90;;;;;;6238418;22;20152;-83
2023/03/13 05:52:30;;;;;;;3.38;1.35;;;11.30;99.90;;;;;;6265987;22;20159;-82
2023/03/13 05:54:56;;;;;;;2.50;2.03;;;11.30;99.90;;;;;;6264554;22;20148;-80
2023/03/13 05:57:21;;;;;;;1.30;1.00;;;11.40;99.90;;;;;;6232208;22;20544;-79
2023/03/13 05:59:47;;;;;;;1.33;1.20;;;11.40;99.90;;;;;;6264008;22;20162;-82
2023/03/13 06:02:12;;;;;;;4.57;2.27;;;11.50;99.90;;;;;;6261229;22;20172;-81
2023/03/13 06:04:38;;;;;;;1.63;0.80;;;11.50;99.90;;;;;;6271481;22;20159;-81
2023/03/13 06:07:04;;;;;;;1.50;1.10;;;11.50;99.90;;;;;;6269605;22;20208;-81
2023/03/13 06:09:29;;;;;;;7.63;3.67;;;11.50;99.90;;;;;;6268772;22;20183;-83
2023/03/13 06:11:55;;;;;;;0.67;0.67;;;11.40;99.90;;;;;;6269086;22;20194;-81
2023/03/13 06:14:20;;;;;;;3.93;2.37;;;11.50;99.90;;;;;;6281085;22;20158;-79
2023/03/13 06:16:46;;;;;;;1.20;0.80;;;11.60;99.90;;;;;;6278420;22;20186;-83
2023/03/13 06:19:11;;;;;;;1.30;0.83;;;11.60;99.90;;;;;;6275099;22;20152;-82
2023/03/13 06:21:38;;;;;;;1.53;1.00;;;11.60;99.90;;;;;;6273726;22;20171;-82
2023/03/13 06:24:04;;;;;;;2.28;0.70;;;11.60;99.90;;;;;;6269269;22;20178;-82
2023/03/13 06:26:29;;;;;;;1.48;0.90;;;11.70;99.90;;;;;;6267749;22;20148;-83
2023/03/13 06:28:55;;;;;;;1.30;1.20;;;11.80;99.90;;;;;;6269481;22;20175;-84
2023/03/13 06:31:20;;;;;;;2.13;0.50;;;11.90;99.90;;;;;;6264852;22;20618;-83
2023/03/13 06:33:46;;;;;;;2.97;1.60;;;11.90;99.90;;;;;;6261373;22;20179;-81
2023/03/13 06:36:12;;;;;;;2.80;0.63;;;11.80;99.90;;;;;;6262143;22;20132;-81
2023/03/13 06:38:37;;;;;;;1.67;1.13;;;11.80;99.90;;;;;;6262514;22;20148;-81
2023/03/13 06:41:03;;;;;;;0.77;0.50;;;11.80;99.90;;;;;;6264741;22;20175;-82
2023/03/13 06:43:29;;;;;;;1.13;0.77;;;11.80;99.90;;;;;;6266679;22;20167;-82
2023/03/13 06:45:54;;;;;;;1.60;0.60;;;11.80;99.90;;;;;;6267310;22;20158;-81
2023/03/13 06:48:21;;;;;;;1.23;0.70;;;11.90;99.90;;;;;;6261970;22;20960;-82
2023/03/13 06:50:48;;;;;;;1.40;0.75;;;11.90;99.90;;;;;;6264906;22;20373;-81
2023/03/13 06:53:16;;;;;;;1.05;0.30;;;11.90;99.90;;;;;;6267001;22;20921;-81
2023/03/13 06:55:42;;;;;;;0.50;0.40;;;11.90;99.90;;;;;;6263637;22;20175;-82
2023/03/13 06:58:08;;;;;;;0.60;0.50;;;12.00;99.90;;;;;;6264282;22;20171;-80
2023/03/13 07:00:34;;;;;;;0.87;0.70;;;12.00;99.90;;;;;;6257654;22;20178;-80
2023/03/13 07:03:00;;;;;;;0.80;0.70;;;12.00;99.90;;;;;;6272673;22;20430;-82
2023/03/13 07:05:25;;;;;;;2.05;0.63;;;12.10;99.90;;;;;;6265203;22;20725;-82
2023/03/13 07:07:51;;;;;;;1.57;0.70;;;12.20;99.90;;;;;;6263481;22;20162;-83
2023/03/13 07:10:16;;;;;;;1.17;0.60;;;12.20;99.90;;;;;;6263781;22;20168;-81
2023/03/13 07:12:43;;;;;;;0.70;0.60;;;12.30;99.90;;;;;;6264960;22;20164;-83
2023/03/13 07:15:09;;;;;;;0.90;0.60;;;12.30;99.90;;;;;;6262455;22;20730;-80
2023/03/13 07:17:35;;;;;;;3.70;0.77;;;12.30;99.90;;;;;;6266474;22;20140;-79
2023/03/13 07:20:04;;;;;;;0.65;0.45;;;12.30;99.90;;;;;;6264747;22;20151;-80
2023/03/13 07:22:29;;;;;;;0.63;0.50;;;12.40;99.90;;;;;;6263888;22;20187;-81
2023/03/13 07:24:55;;;;;;;0.40;0.30;;;12.50;99.90;;;;;;6262460;22;20201;-81
2023/03/13 07:27:21;;;;;;;0.60;0.40;;;12.50;99.90;;;;;;6262826;22;20478;-80
2023/03/13 07:29:47;;;;;;;2.25;0.68;;;12.60;99.90;;;;;;6265104;22;20263;-83
2023/03/13 07:32:13;;;;;;;0.50;0.33;;;12.70;99.90;;;;;;6268885;22;20198;-81
2023/03/13 07:34:38;;;;;;;0.70;0.50;;;12.90;99.90;;;;;;6276282;22;20366;-81
2023/03/13 07:37:04;;;;;;;0.77;0.47;;;13.10;99.90;;;;;;6270275;22;20617;-83
2023/03/13 07:39:29;;;;;;;1.43;0.40;;;13.10;99.90;;;;;;6263377;22;20348;-83
2023/03/13 07:41:55;;;;;;;0.60;0.60;;;13.20;99.90;;;;;;6265588;22;20171;-82
2023/03/13 07:44:20;;;;;;;1.17;0.40;;;13.20;99.90;;;;;;6270210;22;20156;-83
2023/03/13 07:46:47;;;;;;;0.80;0.50;;;13.40;99.90;;;;;;6268152;22;20164;-82
2023/03/13 07:49:12;;;;;;;1.00;0.57;;;13.40;99.90;;;;;;6268364;22;20171;-80
2023/03/13 07:51:38;;;;;;;0.60;0.50;;;13.50;99.90;;;;;;6258872;22;20402;-81
2023/03/13 07:54:04;;;;;;;0.60;0.37;;;13.70;99.90;;;;;;6265476;22;20152;-78
2023/03/13 07:56:30;;;;;;;0.50;0.50;;;13.80;99.90;;;;;;6261777;22;20179;-80
2023/03/13 07:58:55;;;;;;;1.17;0.60;;;14.00;99.90;;;;;;6260610;22;20163;-78
2023/03/13 08:01:26;;;;;;;3.23;0.47;;;14.30;99.90;;;;;;6241415;22;20414;-80
2023/03/13 08:03:55;;;;;;;0.90;0.40;;;14.30;99.90;;;;;;6279808;22;20175;-84
2023/03/13 08:06:25;;;;;;;1.90;0.60;;;14.20;99.90;;;;;;6238251;22;20370;-82
2023/03/13 08:08:52;;;;;;;0.70;0.60;;;14.30;99.90;;;;;;6266321;22;20418;-83
2023/03/13 08:11:24;;;;;;;2.30;0.60;;;14.40;99.90;;;;;;6239096;22;20406;-81
2023/03/13 08:13:50;;;;;;;1.57;0.50;;;14.60;99.90;;;;;;6269402;22;20382;-85
2023/03/13 08:16:18;;;;;;;0.67;0.50;;;14.60;99.90;;;;;;6248463;22;20458;-83
2023/03/13 08:18:46;;;;;;;0.53;0.50;;;14.70;99.90;;;;;;6240620;22;20390;-79
2023/03/13 08:21:20;;;;;;;0.40;0.30;;;14.90;99.90;;;;;;6267313;22;20440;-80
2023/03/13 08:23:46;;;;;;;0.73;0.50;;;15.20;99.90;;;;;;6260674;22;20373;-82
2023/03/13 08:26:17;;;;;;;0.70;0.50;;;15.30;99.90;;;;;;6265180;22;20359;-81
2023/03/13 08:28:44;;;;;;;1.37;0.60;;;15.40;99.90;;;;;;6263375;22;20420;-81
2023/03/13 08:31:15;;;;;;;1.10;0.60;;;15.30;99.90;;;;;;6234752;22;20430;-79
2023/03/13 08:33:44;;;;;;;0.87;0.47;;;15.10;99.90;;;;;;6262627;22;20708;-80
2023/03/13 08:36:24;;;;;;;1.37;0.90;;;14.90;99.90;;;;;;6236386;22;20488;-81
2023/03/13 08:38:51;;;;;;;0.80;0.70;;;14.80;99.90;;;;;;6261668;22;20366;-79
2023/03/13 08:41:23;;;;;;;0.60;0.50;;;14.90;99.90;;;;;;6233595;22;20439;-79
2023/03/13 08:43:51;;;;;;;1.13;0.53;;;15.00;99.90;;;;;;6236464;22;20457;-81
2023/03/13 08:46:16;;;;;;;0.63;0.53;;;15.30;99.90;;;;;;6237426;22;20390;-83
2023/03/13 08:48:42;;;;;;;0.83;0.50;;;15.30;99.90;;;;;;6234941;22;20418;-81
2023/03/13 08:51:10;;;;;;;2.53;0.63;;;15.30;99.90;;;;;;6257888;22;20171;-79
2023/03/13 08:53:37;;;;;;;1.17;0.67;;;15.30;99.90;;;;;;6236329;22;20184;-81
2023/03/13 08:56:03;;;;;;;1.43;0.87;;;15.30;99.90;;;;;;6261362;22;20393;-78
2023/03/13 08:58:29;;;;;;;0.70;0.47;;;;;;;;;;6263388;22;20504;-79
2023/03/13 09:01:04;;;;;;;0.80;0.60;;;15.50;99.90;;;;;;6264919;22;20524;-82
2023/03/13 09:03:30;;;;;;;1.83;0.90;;;15.20;99.90;;;;;;6235820;22;20384;-81
2023/03/13 09:05:57;;;;;;;1.00;0.87;;;15.00;99.90;;;;;;6238193;22;20924;-80
2023/03/13 09:08:22;;;;;;;5.80;0.80;;;15.00;99.90;;;;;;6236879;22;20414;-82
2023/03/13 09:10:55;;;;;;;1.33;0.87;;;15.00;99.90;;;;;;6262618;22;21064;-81
2023/03/13 09:13:20;;;;;;;2.50;0.90;;;15.00;99.90;;;;;;6238386;22;20147;-81
2023/03/13 09:16:06;;;;;;;1.77;1.00;;;14.90;99.90;;;;;;6265306;22;20347;-80
2023/03/13 09:18:33;;;;;;;3.23;1.20;;;14.90;99.90;;;;;;6239235;22;20144;-79
2023/03/13 09:20:58;;;;;;;0.83;0.73;;;14.90;99.90;;;;;;6237079;22;20402;-83
2023/03/13 09:23:24;;;;;;;1.50;1.00;;;15.00;99.90;;;;;;6237087;22;20378;-80
2023/03/13 09:25:55;;;;;;;2.30;1.43;;;15.30;99.90;;;;;;6238967;22;20159;-80
2023/03/13 09:28:22;;;;;;;2.77;1.13;;;15.30;99.90;;;;;;6270365;22;20489;-77
2023/03/13 09:30:50;;;;;;;1.47;1.10;;;15.30;99.90;;;;;;6239523;22;20461;-84
2023/03/13 09:33:17;;;;;;;3.83;1.20;;;15.20;99.90;;;;;;6242350;22;20515;-81
2023/03/13 09:35:46;;;;;;;2.80;1.10;;;15.40;99.90;;;;;;6269409;22;20414;-81
2023/03/13 09:38:11;;;;;;;1.83;1.00;;;15.40;99.90;;;;;;6266513;22;20860;-80
2023/03/13 09:40:43;;;;;;;1.63;1.47;;;15.60;99.90;;;;;;6263847;22;20455;-81
2023/03/13 09:43:38;;;;;;;1.83;1.23;;;16.00;99.90;;;;;;6236464;22;20602;-81
2023/03/13 09:46:08;;;;;;;2.23;1.30;;;16.00;99.90;;;;;;6262853;22;20545;-81
2023/03/13 09:48:41;;;;;;;1.73;1.30;;;16.10;99.90;;;;;;6278764;22;20598;-81
2023/03/13 09:51:11;;;;;;;2.53;1.33;;;16.00;99.90;;;;;;6241725;22;20500;-84
2023/03/13 09:53:43;;;;;;;4.17;1.80;;;15.90;99.90;;;;;;6266980;22;20363;-82
2023/03/13 09:56:18;;;;;;;5.67;1.53;;;16.00;99.90;;;;;;6239891;22;20432;-82
2023/03/13 09:58:52;;;;;;;4.70;1.40;;;16.10;99.90;;;;;;6254789;22;20409;-82
2023/03/13 10:01:22;;;;;;;1.50;1.27;;;16.50;99.90;;;;;;6263248;22;20485;-80
2023/03/13 10:04:03;;;;;;;6.80;2.30;;;16.20;99.90;;;;;;6265598;22;20382;-81
2023/03/13 10:06:34;;;;;;;2.23;1.10;;;16.20;99.90;;;;;;6261534;22;20389;-84
2023/03/13 10:09:00;;;;;;;2.40;1.23;;;17.20;99.90;;;;;;6265437;22;20405;-83
2023/03/13 10:11:31;;;;;;;2.57;1.20;;;17.90;99.90;;;;;;6262222;22;20406;-82
2023/03/13 10:14:03;;;;;;;3.17;1.30;;;18.70;99.90;;;;;;6260101;22;20147;-81
2023/03/13 10:16:43;;;;;;;2.00;1.53;;;18.10;99.90;;;;;;6262631;22;20405;-79
2023/03/13 10:19:30;;;;;;;3.23;1.63;;;17.40;99.90;;;;;;6261102;22;20435;-82
2023/03/13 10:21:57;;;;;;;1.50;1.40;;;17.30;99.90;;;;;;6262263;22;20469;-82
2023/03/13 10:24:35;;;;;;;3.70;1.30;;;17.70;99.90;;;;;;6264499;22;20849;-82
2023/03/13 10:27:00;;;;;;;3.20;1.10;;;18.00;99.90;;;;;;6262285;22;20419;-80
2023/03/13 10:29:29;;;;;;;2.17;1.40;;;18.30;99.90;;;;;;6261292;22;20509;-81
2023/03/13 10:32:04;;;;;;;3.23;1.50;;;18.70;99.90;;;;;;6263009;22;20224;-83
2023/03/13 10:34:48;;;;;;;4.83;1.40;;;19.00;99.90;;;;;;6267513;22;20361;-84
2023/03/13 10:37:16;;;;;;;4.37;1.77;;;18.90;99.90;;;;;;6264629;22;20437;-82
2023/03/13 10:39:41;;;;;;;4.00;2.10;;;18.90;99.90;;;;;;6263773;22;20370;-82
2023/03/13 10:42:24;;;;;;;6.67;1.93;;;18.90;99.90;;;;;;6262581;22;20489;-82
2023/03/13 10:44:56;;;;;;;5.13;1.43;;;19.00;99.90;;;;;;6263593;22;20692;-82
2023/03/13 10:47:22;;;;;;;2.70;1.63;;;19.10;99.90;;;;;;6263983;22;20379;-81
2023/03/13 10:49:54;;;;;;;4.30;1.83;;;18.50;99.90;;;;;;6261190;22;20418;-81
2023/03/13 10:52:45;;;;;;;7.83;1.77;;;18.00;99.90;;;;;;6262422;22;20183;-83
2023/03/13 10:55:21;;;;;;;3.40;2.17;;;18.10;99.90;;;;;;6258781;22;20524;-82
2023/03/13 10:58:17;;;;;;;3.10;1.70;;;18.60;99.90;;;;;;6264414;22;20718;-80
2023/03/13 11:00:43;;;;;;;2.83;1.63;;;;;;;;;;6252735;22;20430;-78
2023/03/13 11:03:32;;;;;;;2.30;1.40;;;18.80;99.90;;;;;;6266963;22;20370;-82
2023/03/13 11:06:02;;;;;;;1.93;1.67;;;19.30;99.90;;;;;;6266014;22;21160;-83
2023/03/13 11:08:34;;;;;;;6.03;3.93;;;19.90;99.90;;;;;;6263907;22;21204;-81
2023/03/13 11:11:15;;;;;;;2.30;1.90;;;19.50;99.90;;;;;;6266686;22;20394;-82
2023/03/13 11:13:42;;;;;;;5.43;2.07;;;19.30;99.90;;;;;;6262113;22;20385;-83
2023/03/13 11:16:39;;;;;;;2.87;1.70;;;18.70;99.90;;;;;;6266236;22;20871;-80
2023/03/13 11:19:40;;;;;;;3.37;1.53;;;18.80;99.90;;;;;;6259722;22;20391;-81
2023/03/13 11:22:38;;;;;;;2.20;1.70;;;18.90;99.90;;;;;;6265879;22;20395;-82
2023/03/13 11:25:19;;;;;;;3.80;1.30;;;19.60;99.90;;;;;;6264302;22;20386;-82
2023/03/13 11:27:58;;;;;;;9.40;1.40;;;19.80;99.90;;;;;;6266705;22;20366;-83
2023/03/13 11:30:30;;;;;;;2.23;1.63;;;19.30;99.90;;;;;;6266748;22;20454;-83
2023/03/13 11:33:02;;;;;;;2.53;1.63;;;19.10;99.90;;;;;;6265372;22;20347;-83
2023/03/13 11:36:03;;;;;;;1.50;1.30;;;18.90;99.90;;;;;;6263156;22;20457;-84
2023/03/13 11:38:39;;;;;;;4.60;1.47;;;18.90;99.90;;;;;;6253606;22;20383;-81
2023/03/13 11:41:30;;;;;;;2.30;1.47;;;18.60;99.90;;;;;;6264733;22;20396;-81
2023/03/13 11:44:26;;;;;;;3.20;1.90;;;18.40;99.90;;;;;;6263272;22;20367;-78
2023/03/13 11:47:11;;;;;;;7.40;3.20;;;18.20;99.90;;;;;;6259107;22;20366;-80
2023/03/13 11:49:39;;;;;;;3.10;1.43;;;18.10;99.90;;;;;;6268524;22;20568;-82
2023/03/13 11:52:41;;;;;;;1.97;1.50;;;18.00;99.90;;;;;;6271116;22;20497;-80
2023/03/13 11:55:39;;;;;;;6.20;1.47;;;18.00;99.90;;;;;;6272927;22;20381;-81
2023/03/13 11:58:54;;;;;;;6.23;2.90;;;18.30;99.90;;;;;;6249719;22;20400;-83
2023/03/13 12:01:24;;;;;;;5.23;1.30;;;18.50;99.90;;;;;;6238274;23;21004;-81
2023/03/13 12:04:02;;;;;;;1.20;1.10;;;18.50;99.90;;;;;;6237227;23;20375;-81
2023/03/13 12:06:35;;;;;;;1.80;1.47;;;18.60;99.90;;;;;;6260167;22;20880;-83
2023/03/13 12:09:14;;;;;;;3.23;2.17;;;18.30;99.90;;;;;;6272611;22;20441;-83
2023/03/13 12:11:53;;;;;;;3.70;1.63;;;18.30;99.90;;;;;;6270336;22;20406;-82
2023/03/13 12:14:26;;;;;;;2.20;1.33;;;18.20;99.90;;;;;;6260797;22;20368;-79
2023/03/13 12:17:00;;;;;;;2.47;1.17;;;18.40;99.90;;;;;;6267126;22;20379;-84
2023/03/13 12:19:34;;;;;;;6.03;2.70;;;18.40;99.90;;;;;;6264518;22;20362;-83
2023/03/13 12:22:26;;;;;;;3.10;1.70;;;18.40;99.90;;;;;;6269855;22;20901;-80
2023/03/13 12:25:02;;;;;;;3.03;1.37;;;18.40;99.90;;;;;;6269337;22;20439;-80
2023/03/13 12:27:57;;;;;;;3.23;1.40;;;18.70;99.90;;;;;;6271035;22;20358;-79
2023/03/13 12:30:42;;;;;;;5.50;2.43;;;19.00;99.90;;;;;;6264934;22;20944;-81
2023/03/13 12:33:43;;;;;;;2.00;1.30;;;19.20;99.90;;;;;;6264153;22;20419;-82
2023/03/13 12:36:21;;;;;;;1.43;1.33;;;18.90;99.90;;;;;;6267271;22;20350;-82
2023/03/13 12:38:54;;;;;;;2.70;1.20;;;19.00;99.90;;;;;;6265719;22;20435;-84
2023/03/13 12:41:42;;;;;;;5.67;1.40;;;19.10;99.90;;;;;;6267805;22;20916;-79
2023/03/13 12:44:19;;;;;;;2.07;1.40;;;19.00;99.90;;;;;;6265902;22;20381;-82
2023/03/13 12:47:01;;;;;;;5.37;3.33;;;19.10;99.90;;;;;;6266343;22;20370;-82
2023/03/13 12:50:05;;;;;;;2.00;1.30;;;19.30;99.90;;;;;;6262493;22;20506;-83
2023/03/13 12:52:53;;;;;;;4.70;2.20;;;19.40;99.90;;;;;;6247553;22;20406;-81
2023/03/13 12:55:43;;;;;;;5.70;2.00;;;19.60;99.90;;;;;;6266115;22;20693;-81
2023/03/13 12:58:13;;;;;;;9.13;5.50;;;19.70;99.90;;;;;;6266049;22;20402;-79
2023/03/13 13:00:42;;;;;;;2.50;1.53;;;19.80;99.90;;;;;;6270165;22;20915;-82
2023/03/13 13:03:49;;;;;;;7.40;1.70;;;20.00;99.90;;;;;;6267145;22;20394;-81